sensor_id;sensor_type;location;lat;lon;timestamp;pressure;altitude;pressure_sealevel;temperature;humidity
62025;BME280;47978;49.118;12.146;2022-08-21T00:00:13;97517.03;;;16.61;96.57
62025;BME280;47978;49.118;12.146;2022-08-21T00:02:46;97510.16;;;16.59;96.76
62025;BME280;47978;49.118;12.146;2022-08-21T00:05:13;97505.16;;;16.64;96.42
62025;BME280;47978;49.118;12.146;2022-08-21T00:07:40;97500.63;;;16.60;96.65
62025;BME280;47978;49.118;12.146;2022-08-21T00:10:07;97502.94;;;16.58;96.66
62025;BME280;47978;49.118;12.146;2022-08-21T00:12:34;97502.94;;;16.58;97.00
62025;BME280;47978;49.118;12.146;2022-08-21T00:15:00;97504.13;;;16.57;97.18
62025;BME280;47978;49.118;12.146;2022-08-21T00:17:27;97500.03;;;16.54;97.18
62025;BME280;47978;49.118;12.146;2022-08-21T00:19:55;97495.75;;;16.57;97.38
62025;BME280;47978;49.118;12.146;2022-08-21T00:22:22;97497.84;;;16.60;97.31
62025;BME280;47978;49.118;12.146;2022-08-21T00:24:48;97494.69;;;16.61;97.02
62025;BME280;47978;49.118;12.146;2022-08-21T00:27:15;97495.84;;;16.60;96.69
62025;BME280;47978;49.118;12.146;2022-08-21T00:29:41;97489.34;;;16.56;97.41
62025;BME280;47978;49.118;12.146;2022-08-21T00:32:08;97501.44;;;16.60;96.88
62025;BME280;47978;49.118;12.146;2022-08-21T00:34:34;97492.25;;;16.60;96.72
62025;BME280;47978;49.118;12.146;2022-08-21T00:37:02;97497.13;;;16.63;97.21
62025;BME280;47978;49.118;12.146;2022-08-21T00:39:29;97491.78;;;16.58;96.90
62025;BME280;47978;49.118;12.146;2022-08-21T00:41:55;97489.69;;;16.55;97.11
62025;BME280;47978;49.118;12.146;2022-08-21T00:44:22;97490.28;;;16.60;97.38
62025;BME280;47978;49.118;12.146;2022-08-21T00:46:48;97480.13;;;16.56;97.18
62025;BME280;47978;49.118;12.146;2022-08-21T00:49:15;97479.19;;;16.52;97.96
62025;BME280;47978;49.118;12.146;2022-08-21T00:51:47;97481.50;;;16.50;97.62
62025;BME280;47978;49.118;12.146;2022-08-21T00:54:17;97478.72;;;16.50;98.02
62025;BME280;47978;49.118;12.146;2022-08-21T00:56:46;97474.19;;;16.45;98.36
62025;BME280;47978;49.118;12.146;2022-08-21T00:59:15;97470.56;;;16.45;98.08
62025;BME280;47978;49.118;12.146;2022-08-21T01:01:42;97477.91;;;16.49;98.17
62025;BME280;47978;49.118;12.146;2022-08-21T01:04:09;97483.81;;;16.48;98.51
62025;BME280;47978;49.118;12.146;2022-08-21T01:06:35;97487.91;;;16.50;98.58
62025;BME280;47978;49.118;12.146;2022-08-21T01:09:02;97487.56;;;16.52;98.54
62025;BME280;47978;49.118;12.146;2022-08-21T01:11:30;97479.19;;;16.52;98.61
62025;BME280;47978;49.118;12.146;2022-08-21T01:13:57;97472.94;;;16.55;98.38
62025;BME280;47978;49.118;12.146;2022-08-21T01:16:24;97476.88;;;16.54;98.48
62025;BME280;47978;49.118;12.146;2022-08-21T01:18:51;97472.81;;;16.51;98.81
62025;BME280;47978;49.118;12.146;2022-08-21T01:21:21;97474.91;;;16.54;99.08
62025;BME280;47978;49.118;12.146;2022-08-21T01:23:54;97476.19;;;16.57;98.58
62025;BME280;47978;49.118;12.146;2022-08-21T01:26:27;97479.69;;;16.54;99.05
62025;BME280;47978;49.118;12.146;2022-08-21T01:29:02;97474.44;;;16.52;98.74
62025;BME280;47978;49.118;12.146;2022-08-21T01:31:31;97475.94;;;16.50;99.15
62025;BME280;47978;49.118;12.146;2022-08-21T01:33:58;97474.78;;;16.51;99.20
62025;BME280;47978;49.118;12.146;2022-08-21T01:36:27;97466.88;;;16.53;99.50
62025;BME280;47978;49.118;12.146;2022-08-21T01:38:53;97469.31;;;16.54;99.05
62025;BME280;47978;49.118;12.146;2022-08-21T01:41:20;97474.91;;;16.54;99.58
62025;BME280;47978;49.118;12.146;2022-08-21T01:43:47;97473.84;;;16.59;99.16
62025;BME280;47978;49.118;12.146;2022-08-21T01:46:15;97473.53;;;16.60;99.30
62025;BME280;47978;49.118;12.146;2022-08-21T01:48:41;97471.91;;;16.59;99.11
62025;BME280;47978;49.118;12.146;2022-08-21T01:51:09;97474.22;;;16.70;98.77
62025;BME280;47978;49.118;12.146;2022-08-21T01:53:37;97467.34;;;16.67;98.51
62025;BME280;47978;49.118;12.146;2022-08-21T01:56:09;97469.34;;;16.67;98.95
62025;BME280;47978;49.118;12.146;2022-08-21T01:58:38;97470.50;;;16.66;98.72
62025;BME280;47978;49.118;12.146;2022-08-21T02:01:05;97472.34;;;16.61;99.02
62025;BME280;47978;49.118;12.146;2022-08-21T02:03:32;97471.41;;;16.57;99.05
62025;BME280;47978;49.118;12.146;2022-08-21T02:06:01;97473.41;;;16.57;99.56
62025;BME280;47978;49.118;12.146;2022-08-21T02:08:28;97466.88;;;16.53;99.77
62025;BME280;47978;49.118;12.146;2022-08-21T02:10:56;97468.25;;;16.47;100.00
62025;BME280;47978;49.118;12.146;2022-08-21T02:13:23;97470.22;;;16.46;100.00
62025;BME280;47978;49.118;12.146;2022-08-21T02:15:49;97459.88;;;16.47;100.00
62025;BME280;47978;49.118;12.146;2022-08-21T02:18:16;97464.66;;;16.46;100.00
62025;BME280;47978;49.118;12.146;2022-08-21T02:20:46;97463.63;;;16.51;100.00
62025;BME280;47978;49.118;12.146;2022-08-21T02:23:14;97462.94;;;16.54;100.00
62025;BME280;47978;49.118;12.146;2022-08-21T02:25:41;97459.66;;;16.52;100.00
62025;BME280;47978;49.118;12.146;2022-08-21T02:28:12;97464.22;;;16.56;100.00
62025;BME280;47978;49.118;12.146;2022-08-21T02:30:40;97458.97;;;16.55;100.00
62025;BME280;47978;49.118;12.146;2022-08-21T02:33:08;97458.25;;;16.46;100.00
62025;BME280;47978;49.118;12.146;2022-08-21T02:35:36;97458.25;;;16.46;100.00
62025;BME280;47978;49.118;12.146;2022-08-21T02:38:05;97457.56;;;16.49;100.00
62025;BME280;47978;49.118;12.146;2022-08-21T02:40:34;97452.47;;;16.51;100.00
62025;BME280;47978;49.118;12.146;2022-08-21T02:43:03;97457.44;;;16.45;100.00
62025;BME280;47978;49.118;12.146;2022-08-21T02:45:32;97464.75;;;16.37;100.00
62025;BME280;47978;49.118;12.146;2022-08-21T02:48:02;97457.78;;;16.44;100.00
62025;BME280;47978;49.118;12.146;2022-08-21T02:50:31;97457.91;;;16.47;100.00
62025;BME280;47978;49.118;12.146;2022-08-21T02:52:59;97456.41;;;16.50;100.00
62025;BME280;47978;49.118;12.146;2022-08-21T02:55:27;97459.78;;;16.55;99.90
62025;BME280;47978;49.118;12.146;2022-08-21T02:57:56;97460.38;;;16.61;99.89
62025;BME280;47978;49.118;12.146;2022-08-21T03:00:26;97460.72;;;16.59;99.88
62025;BME280;47978;49.118;12.146;2022-08-21T03:02:54;97455.84;;;16.56;99.46
62025;BME280;47978;49.118;12.146;2022-08-21T03:05:22;97456.41;;;16.50;99.57
62025;BME280;47978;49.118;12.146;2022-08-21T03:07:50;97458.94;;;16.42;99.99
62025;BME280;47978;49.118;12.146;2022-08-21T03:10:16;97458.34;;;16.37;99.84
62025;BME280;47978;49.118;12.146;2022-08-21T03:12:43;97458.47;;;16.40;99.88
62025;BME280;47978;49.118;12.146;2022-08-21T03:15:12;97460.44;;;16.40;100.00
62025;BME280;47978;49.118;12.146;2022-08-21T03:17:39;97464.53;;;16.42;99.87
62025;BME280;47978;49.118;12.146;2022-08-21T03:20:09;97467.66;;;16.41;99.78
62025;BME280;47978;49.118;12.146;2022-08-21T03:22:36;97461.59;;;16.39;100.00
62025;BME280;47978;49.118;12.146;2022-08-21T03:25:03;97464.75;;;16.37;100.00
62025;BME280;47978;49.118;12.146;2022-08-21T03:27:32;97459.38;;;16.32;100.00
62025;BME280;47978;49.118;12.146;2022-08-21T03:30:00;97462.44;;;16.39;100.00
62025;BME280;47978;49.118;12.146;2022-08-21T03:32:27;97454.50;;;16.41;100.00
62025;BME280;47978;49.118;12.146;2022-08-21T03:34:54;97463.84;;;16.46;99.98
62025;BME280;47978;49.118;12.146;2022-08-21T03:37:22;97463.03;;;16.45;100.00
62025;BME280;47978;49.118;12.146;2022-08-21T03:39:48;97464.75;;;16.37;99.92
62025;BME280;47978;49.118;12.146;2022-08-21T03:42:15;97462.75;;;16.26;100.00
62025;BME280;47978;49.118;12.146;2022-08-21T03:44:42;97469.34;;;16.21;100.00
62025;BME280;47978;49.118;12.146;2022-08-21T03:47:09;97468.41;;;16.17;100.00
62025;BME280;47978;49.118;12.146;2022-08-21T03:49:36;97462.00;;;16.16;100.00
62025;BME280;47978;49.118;12.146;2022-08-21T03:52:03;97468.94;;;16.10;100.00
62025;BME280;47978;49.118;12.146;2022-08-21T03:54:31;97470.72;;;16.15;100.00
62025;BME280;47978;49.118;12.146;2022-08-21T03:56:58;97468.81;;;16.07;100.00
62025;BME280;47978;49.118;12.146;2022-08-21T03:59:25;97476.47;;;15.98;100.00
62025;BME280;47978;49.118;12.146;2022-08-21T04:01:53;97474.56;;;15.89;100.00
62025;BME280;47978;49.118;12.146;2022-08-21T04:04:19;97480.47;;;15.88;100.00
62025;BME280;47978;49.118;12.146;2022-08-21T04:06:46;97483.94;;;15.85;100.00
62025;BME280;47978;49.118;12.146;2022-08-21T04:09:13;97491.50;;;15.84;100.00
62025;BME280;47978;49.118;12.146;2022-08-21T04:11:40;97497.56;;;15.86;100.00
62025;BME280;47978;49.118;12.146;2022-08-21T04:14:07;97495.66;;;15.78;100.00
62025;BME280;47978;49.118;12.146;2022-08-21T04:16:34;97493.47;;;15.84;100.00
62025;BME280;47978;49.118;12.146;2022-08-21T04:19:00;97496.88;;;15.89;100.00
62025;BME280;47978;49.118;12.146;2022-08-21T04:21:27;97504.91;;;15.91;100.00
62025;BME280;47978;49.118;12.146;2022-08-21T04:23:54;97492.47;;;15.88;100.00
62025;BME280;47978;49.118;12.146;2022-08-21T04:26:21;97497.69;;;15.90;100.00
62025;BME280;47978;49.118;12.146;2022-08-21T04:28:49;97499.38;;;15.82;100.00
62025;BME280;47978;49.118;12.146;2022-08-21T04:31:16;97494.84;;;15.78;100.00
62025;BME280;47978;49.118;12.146;2022-08-21T04:33:42;97499.00;;;15.71;100.00
62025;BME280;47978;49.118;12.146;2022-08-21T04:36:09;97499.44;;;15.73;100.00
62025;BME280;47978;49.118;12.146;2022-08-21T04:38:36;97501.91;;;15.75;100.00
62025;BME280;47978;49.118;12.146;2022-08-21T04:41:03;97509.91;;;15.77;100.00
62025;BME280;47978;49.118;12.146;2022-08-21T04:43:30;97505.38;;;15.72;100.00
62025;BME280;47978;49.118;12.146;2022-08-21T04:45:58;97509.00;;;15.64;100.00
62025;BME280;47978;49.118;12.146;2022-08-21T04:48:24;97509.00;;;15.64;100.00
62025;BME280;47978;49.118;12.146;2022-08-21T04:50:55;97518.34;;;15.68;100.00
62025;BME280;47978;49.118;12.146;2022-08-21T04:53:26;97522.13;;;15.63;100.00
62025;BME280;47978;49.118;12.146;2022-08-21T04:55:57;97518.72;;;15.58;100.00
62025;BME280;47978;49.118;12.146;2022-08-21T04:58:27;97521.84;;;15.56;100.00
62025;BME280;47978;49.118;12.146;2022-08-21T05:00:58;97523.34;;;15.53;100.00
62025;BME280;47978;49.118;12.146;2022-08-21T05:03:27;97521.22;;;15.50;100.00
62025;BME280;47978;49.118;12.146;2022-08-21T05:05:54;97517.63;;;15.50;100.00
62025;BME280;47978;49.118;12.146;2022-08-21T05:08:23;97517.63;;;15.50;100.00
62025;BME280;47978;49.118;12.146;2022-08-21T05:10:51;97528.63;;;15.46;100.00
62025;BME280;47978;49.118;12.146;2022-08-21T05:13:25;97535.38;;;15.45;100.00
62025;BME280;47978;49.118;12.146;2022-08-21T05:15:51;97534.16;;;15.55;100.00
62025;BME280;47978;49.118;12.146;2022-08-21T05:18:19;97534.91;;;15.64;100.00
62025;BME280;47978;49.118;12.146;2022-08-21T05:20:46;97536.22;;;15.67;100.00
62025;BME280;47978;49.118;12.146;2022-08-21T05:23:13;97535.00;;;15.77;100.00
62025;BME280;47978;49.118;12.146;2022-08-21T05:25:41;97529.91;;;15.79;100.00
62025;BME280;47978;49.118;12.146;2022-08-21T05:28:07;97529.03;;;15.87;100.00
62025;BME280;47978;49.118;12.146;2022-08-21T05:30:35;97535.91;;;15.89;99.97
62025;BME280;47978;49.118;12.146;2022-08-21T05:33:04;97528.16;;;15.95;99.91
62025;BME280;47978;49.118;12.146;2022-08-21T05:35:32;97532.38;;;16.01;99.36
62025;BME280;47978;49.118;12.146;2022-08-21T05:37:59;97528.28;;;15.99;99.13
62025;BME280;47978;49.118;12.146;2022-08-21T05:40:26;97533.34;;;16.05;99.01
62025;BME280;47978;49.118;12.146;2022-08-21T05:42:55;97544.34;;;16.02;99.12
62025;BME280;47978;49.118;12.146;2022-08-21T05:45:23;97542.03;;;16.04;98.92
62025;BME280;47978;49.118;12.146;2022-08-21T05:48:11;97542.84;;;16.04;98.92
62025;BME280;47978;49.118;12.146;2022-08-21T05:50:39;97543.66;;;16.05;98.75
62025;BME280;47978;49.118;12.146;2022-08-21T05:53:06;97550.28;;;16.00;99.22
62025;BME280;47978;49.118;12.146;2022-08-21T05:55:35;97551.13;;;16.13;98.82
62025;BME280;47978;49.118;12.146;2022-08-21T05:58:05;97543.25;;;16.15;98.28
62025;BME280;47978;49.118;12.146;2022-08-21T06:00:32;97543.31;;;16.27;98.02
62025;BME280;47978;49.118;12.146;2022-08-21T06:02:58;97541.81;;;16.30;97.92
62025;BME280;47978;49.118;12.146;2022-08-21T06:05:25;97544.47;;;16.26;97.46
62025;BME280;47978;49.118;12.146;2022-08-21T06:08:04;97543.06;;;16.20;97.92
62025;BME280;47978;49.118;12.146;2022-08-21T06:10:31;97543.94;;;16.12;98.06
62025;BME280;47978;49.118;12.146;2022-08-21T06:12:57;97537.41;;;16.08;98.85
62025;BME280;47978;49.118;12.146;2022-08-21T06:15:24;97545.50;;;16.01;98.95
62025;BME280;47978;49.118;12.146;2022-08-21T06:17:52;97541.09;;;16.00;99.33
62025;BME280;47978;49.118;12.146;2022-08-21T06:20:18;97548.56;;;16.08;99.35
62025;BME280;47978;49.118;12.146;2022-08-21T06:22:45;97548.97;;;15.98;99.08
62025;BME280;47978;49.118;12.146;2022-08-21T06:25:13;97544.22;;;15.98;99.86
62025;BME280;47978;49.118;12.146;2022-08-21T06:27:39;97550.81;;;15.93;99.87
62025;BME280;47978;49.118;12.146;2022-08-21T06:30:07;97539.16;;;16.12;99.19
62025;BME280;47978;49.118;12.146;2022-08-21T06:32:34;97550.38;;;16.25;98.61
62025;BME280;47978;49.118;12.146;2022-08-21T06:35:01;97547.81;;;16.19;98.53
62025;BME280;47978;49.118;12.146;2022-08-21T06:37:27;97550.94;;;16.18;98.79
62025;BME280;47978;49.118;12.146;2022-08-21T06:39:54;97551.94;;;16.13;99.08
62025;BME280;47978;49.118;12.146;2022-08-21T06:42:22;97552.72;;;16.23;98.82
62025;BME280;47978;49.118;12.146;2022-08-21T06:44:53;97545.16;;;16.23;98.72
62025;BME280;47978;49.118;12.146;2022-08-21T06:47:20;97550.75;;;16.23;98.89
62025;BME280;47978;49.118;12.146;2022-08-21T06:49:46;97548.28;;;16.22;98.85
62025;BME280;47978;49.118;12.146;2022-08-21T06:52:13;97543.09;;;16.32;98.44
62025;BME280;47978;49.118;12.146;2022-08-21T06:54:40;97541.00;;;16.29;98.58
62025;BME280;47978;49.118;12.146;2022-08-21T06:57:07;97539.50;;;16.32;98.48
62025;BME280;47978;49.118;12.146;2022-08-21T06:59:35;97533.34;;;16.38;98.25
62025;BME280;47978;49.118;12.146;2022-08-21T07:02:02;97535.44;;;16.41;98.04
62025;BME280;47978;49.118;12.146;2022-08-21T07:04:29;97538.13;;;16.38;97.73
62025;BME280;47978;49.118;12.146;2022-08-21T07:06:55;97530.25;;;16.52;97.58
62025;BME280;47978;49.118;12.146;2022-08-21T07:09:22;97533.66;;;16.58;97.13
62025;BME280;47978;49.118;12.146;2022-08-21T07:11:52;97545.38;;;16.51;96.96
62025;BME280;47978;49.118;12.146;2022-08-21T07:14:19;97546.72;;;16.66;96.35
62025;BME280;47978;49.118;12.146;2022-08-21T07:16:47;97549.72;;;16.73;96.36
62025;BME280;47978;49.118;12.146;2022-08-21T07:19:14;97552.09;;;16.71;95.96
62025;BME280;47978;49.118;12.146;2022-08-21T07:21:41;97550.66;;;16.65;95.85
62025;BME280;47978;49.118;12.146;2022-08-21T07:24:08;97547.50;;;16.67;95.98
62025;BME280;47978;49.118;12.146;2022-08-21T07:26:35;97552.88;;;16.59;97.25
62025;BME280;47978;49.118;12.146;2022-08-21T07:29:02;97545.09;;;16.65;97.27
62025;BME280;47978;49.118;12.146;2022-08-21T07:31:29;97552.09;;;16.71;97.17
62025;BME280;47978;49.118;12.146;2022-08-21T07:33:57;97549.09;;;16.76;97.04
62025;BME280;47978;49.118;12.146;2022-08-21T07:36:24;97553.06;;;16.88;96.01
62025;BME280;47978;49.118;12.146;2022-08-21T07:38:51;97555.63;;;16.93;95.43
62025;BME280;47978;49.118;12.146;2022-08-21T07:41:21;97555.13;;;16.78;95.25
62025;BME280;47978;49.118;12.146;2022-08-21T07:43:48;97560.66;;;16.66;94.83
62025;BME280;47978;49.118;12.146;2022-08-21T07:46:18;97552.97;;;16.63;95.46
62025;BME280;47978;49.118;12.146;2022-08-21T07:48:45;97551.13;;;16.67;95.35
62025;BME280;47978;49.118;12.146;2022-08-21T07:51:15;97554.19;;;16.74;95.12
62025;BME280;47978;49.118;12.146;2022-08-21T07:53:46;97550.09;;;16.72;95.84
62025;BME280;47978;49.118;12.146;2022-08-21T07:56:13;97549.09;;;16.76;94.67
62025;BME280;47978;49.118;12.146;2022-08-21T07:58:40;97552.84;;;16.93;94.33
62025;BME280;47978;49.118;12.146;2022-08-21T08:01:06;97551.91;;;16.89;93.78
62025;BME280;47978;49.118;12.146;2022-08-21T08:03:33;97546.22;;;16.85;93.65
62025;BME280;47978;49.118;12.146;2022-08-21T08:06:00;97545.63;;;16.92;92.88
62025;BME280;47978;49.118;12.146;2022-08-21T08:08:28;97552.50;;;17.06;93.71
62025;BME280;47978;49.118;12.146;2022-08-21T08:10:56;97558.44;;;16.93;93.07
62025;BME280;47978;49.118;12.146;2022-08-21T08:13:23;97560.31;;;17.01;93.21
62025;BME280;47978;49.118;12.146;2022-08-21T08:15:50;97557.78;;;17.33;92.35
62025;BME280;47978;49.118;12.146;2022-08-21T08:18:17;97556.25;;;17.47;92.10
62025;BME280;47978;49.118;12.146;2022-08-21T08:20:44;97556.16;;;17.56;91.40
62025;BME280;47978;49.118;12.146;2022-08-21T08:23:10;97558.47;;;17.66;91.09
62025;BME280;47978;49.118;12.146;2022-08-21T08:25:38;97554.75;;;17.62;91.66
62025;BME280;47978;49.118;12.146;2022-08-21T08:28:06;97568.94;;;17.69;91.92
62025;BME280;47978;49.118;12.146;2022-08-21T08:30:43;97561.50;;;17.49;91.45
62025;BME280;47978;49.118;12.146;2022-08-21T08:33:10;97558.38;;;17.26;92.57
62025;BME280;47978;49.118;12.146;2022-08-21T08:35:36;97557.06;;;17.23;92.82
62025;BME280;47978;49.118;12.146;2022-08-21T08:38:04;97563.25;;;17.41;92.28
62025;BME280;47978;49.118;12.146;2022-08-21T08:40:37;97569.19;;;17.40;91.34
62025;BME280;47978;49.118;12.146;2022-08-21T08:43:10;97560.56;;;17.33;92.07
62025;BME280;47978;49.118;12.146;2022-08-21T08:45:42;97570.00;;;17.52;91.53
62025;BME280;47978;49.118;12.146;2022-08-21T08:48:14;97562.66;;;17.60;90.98
62025;BME280;47978;49.118;12.146;2022-08-21T08:50:49;97566.28;;;17.61;91.37
62025;BME280;47978;49.118;12.146;2022-08-21T08:53:22;97568.72;;;17.62;90.71
62025;BME280;47978;49.118;12.146;2022-08-21T08:55:51;97569.31;;;17.80;90.22
62025;BME280;47978;49.118;12.146;2022-08-21T08:58:23;97574.69;;;17.85;89.59
62025;BME280;47978;49.118;12.146;2022-08-21T09:00:52;97574.09;;;17.92;89.96
62025;BME280;47978;49.118;12.146;2022-08-21T09:03:19;97571.63;;;17.66;90.75
62025;BME280;47978;49.118;12.146;2022-08-21T09:05:49;97578.19;;;17.45;91.47
62025;BME280;47978;49.118;12.146;2022-08-21T09:08:44;97577.56;;;17.27;93.09
62025;BME280;47978;49.118;12.146;2022-08-21T09:11:16;97582.81;;;17.17;93.12
62025;BME280;47978;49.118;12.146;2022-08-21T09:13:57;97591.78;;;17.22;93.75
62025;BME280;47978;49.118;12.146;2022-08-21T09:16:42;97581.41;;;17.47;92.50
62025;BME280;47978;49.118;12.146;2022-08-21T09:19:21;97581.09;;;17.49;90.57
62025;BME280;47978;49.118;12.146;2022-08-21T09:21:57;97570.13;;;17.31;91.90
62025;BME280;47978;49.118;12.146;2022-08-21T09:24:32;97577.00;;;17.34;92.50
62025;BME280;47978;49.118;12.146;2022-08-21T09:27:03;97571.78;;;17.45;93.40
62025;BME280;47978;49.118;12.146;2022-08-21T09:29:33;97581.53;;;17.63;92.76
62025;BME280;47978;49.118;12.146;2022-08-21T09:32:00;97579.78;;;17.71;91.09
62025;BME280;47978;49.118;12.146;2022-08-21T09:34:29;97581.09;;;17.86;90.03
62025;BME280;47978;49.118;12.146;2022-08-21T09:36:57;97582.34;;;18.01;89.66
62025;BME280;47978;49.118;12.146;2022-08-21T09:39:25;97572.19;;;18.08;89.13
62025;BME280;47978;49.118;12.146;2022-08-21T09:41:57;97574.47;;;18.18;89.11
62025;BME280;47978;49.118;12.146;2022-08-21T09:44:26;97570.09;;;18.05;89.72
62025;BME280;47978;49.118;12.146;2022-08-21T09:46:55;97579.91;;;17.87;91.24
62025;BME280;47978;49.118;12.146;2022-08-21T09:49:28;97572.47;;;17.91;90.14
62025;BME280;47978;49.118;12.146;2022-08-21T09:51:56;97572.91;;;18.05;89.81
62025;BME280;47978;49.118;12.146;2022-08-21T09:54:29;97565.16;;;18.14;89.05
62025;BME280;47978;49.118;12.146;2022-08-21T09:56:58;97577.25;;;18.31;87.86
62025;BME280;47978;49.118;12.146;2022-08-21T09:59:27;97570.00;;;18.30;87.43
62025;BME280;47978;49.118;12.146;2022-08-21T10:02:26;97569.28;;;18.45;87.24
62025;BME280;47978;49.118;12.146;2022-08-21T10:04:57;97571.69;;;18.47;86.33
62025;BME280;47978;49.118;12.146;2022-08-21T10:07:26;97562.81;;;18.57;86.86
62025;BME280;47978;49.118;12.146;2022-08-21T10:10:04;97568.00;;;18.71;86.76
62025;BME280;47978;49.118;12.146;2022-08-21T10:12:40;97560.97;;;18.77;87.17
62025;BME280;47978;49.118;12.146;2022-08-21T10:15:15;97561.31;;;18.75;86.36
62025;BME280;47978;49.118;12.146;2022-08-21T10:17:52;97558.41;;;19.16;84.83
62025;BME280;47978;49.118;12.146;2022-08-21T10:20:26;97553.88;;;19.59;82.94
62025;BME280;47978;49.118;12.146;2022-08-21T10:23:09;97550.88;;;19.51;82.39
62025;BME280;47978;49.118;12.146;2022-08-21T10:25:46;97554.25;;;19.73;81.88
62025;BME280;47978;49.118;12.146;2022-08-21T10:28:39;97555.56;;;19.63;82.91
62025;BME280;47978;49.118;12.146;2022-08-21T10:31:13;97548.88;;;19.84;82.68
62025;BME280;47978;49.118;12.146;2022-08-21T10:33:50;97540.72;;;19.63;83.67
62025;BME280;47978;49.118;12.146;2022-08-21T10:36:31;97543.94;;;19.29;84.34
62025;BME280;47978;49.118;12.146;2022-08-21T10:39:08;97537.06;;;19.27;82.99
62025;BME280;47978;49.118;12.146;2022-08-21T10:42:11;97539.78;;;19.23;83.32
62025;BME280;47978;49.118;12.146;2022-08-21T10:44:48;97535.59;;;19.49;84.01
62025;BME280;47978;49.118;12.146;2022-08-21T10:47:22;97542.34;;;19.80;81.11
62025;BME280;47978;49.118;12.146;2022-08-21T10:50:00;97543.53;;;19.63;79.66
62025;BME280;47978;49.118;12.146;2022-08-21T10:52:49;97541.00;;;20.09;79.12
62025;BME280;47978;49.118;12.146;2022-08-21T10:55:22;97543.91;;;20.32;78.33
62025;BME280;47978;49.118;12.146;2022-08-21T10:57:56;97541.31;;;20.23;79.33
62025;BME280;47978;49.118;12.146;2022-08-21T11:00:23;97550.91;;;20.03;78.64
62025;BME280;47978;49.118;12.146;2022-08-21T11:02:58;97542.13;;;20.04;81.32
62025;BME280;47978;49.118;12.146;2022-08-21T11:05:32;97537.94;;;20.53;77.13
62025;BME280;47978;49.118;12.146;2022-08-21T11:08:03;97538.81;;;20.57;77.12
62025;BME280;47978;49.118;12.146;2022-08-21T11:10:37;97539.28;;;21.01;75.60
62025;BME280;47978;49.118;12.146;2022-08-21T11:15:54;97534.16;;;21.30;74.48
62025;BME280;47978;49.118;12.146;2022-08-21T11:18:26;97535.22;;;21.71;72.84
62025;BME280;47978;49.118;12.146;2022-08-21T11:21:03;97523.66;;;22.03;72.15
62025;BME280;47978;49.118;12.146;2022-08-21T11:23:38;97529.06;;;21.62;71.69
62025;BME280;47978;49.118;12.146;2022-08-21T11:26:10;97522.91;;;21.07;73.11
62025;BME280;47978;49.118;12.146;2022-08-21T11:28:43;97527.66;;;21.49;72.59
62025;BME280;47978;49.118;12.146;2022-08-21T11:31:21;97519.50;;;21.67;71.41
62025;BME280;47978;49.118;12.146;2022-08-21T11:34:00;97521.91;;;21.68;70.95
62025;BME280;47978;49.118;12.146;2022-08-21T11:36:38;97509.09;;;21.97;70.88
62025;BME280;47978;49.118;12.146;2022-08-21T11:39:17;97504.69;;;22.00;70.71
62025;BME280;47978;49.118;12.146;2022-08-21T11:41:54;97510.34;;;21.47;71.52
62025;BME280;47978;49.118;12.146;2022-08-21T11:44:32;97503.91;;;21.46;72.22
62025;BME280;47978;49.118;12.146;2022-08-21T11:47:10;97492.19;;;21.71;72.59
62025;BME280;47978;49.118;12.146;2022-08-21T11:50:06;97496.91;;;21.90;71.90
62025;BME280;47978;49.118;12.146;2022-08-21T11:53:01;97493.28;;;21.63;71.84
62025;BME280;47978;49.118;12.146;2022-08-21T11:55:33;97484.16;;;21.69;72.25
62025;BME280;47978;49.118;12.146;2022-08-21T11:58:06;97478.03;;;21.64;72.04
62025;BME280;47978;49.118;12.146;2022-08-21T12:00:37;97479.84;;;21.49;74.43
62025;BME280;47978;49.118;12.146;2022-08-21T12:03:09;97475.59;;;21.62;72.42
62025;BME280;47978;49.118;12.146;2022-08-21T12:05:41;97475.59;;;21.62;72.54
62025;BME280;47978;49.118;12.146;2022-08-21T12:08:13;97479.16;;;21.59;72.88
62025;BME280;47978;49.118;12.146;2022-08-21T12:10:41;97468.00;;;21.40;73.16
62025;BME280;47978;49.118;12.146;2022-08-21T12:13:11;97468.72;;;21.10;71.03
62025;BME280;47978;49.118;12.146;2022-08-21T12:15:37;97471.97;;;21.12;71.83
62025;BME280;47978;49.118;12.146;2022-08-21T12:18:07;97467.25;;;21.43;72.71
62025;BME280;47978;49.118;12.146;2022-08-21T12:21:02;97460.34;;;21.14;71.86
62025;BME280;47978;49.118;12.146;2022-08-21T12:23:33;97461.31;;;21.48;71.57
62025;BME280;47978;49.118;12.146;2022-08-21T12:26:10;97453.50;;;21.64;73.16
62025;BME280;47978;49.118;12.146;2022-08-21T12:28:40;97450.56;;;21.84;71.55
62025;BME280;47978;49.118;12.146;2022-08-21T12:31:21;97448.00;;;22.05;71.14
62025;BME280;47978;49.118;12.146;2022-08-21T12:33:50;97449.59;;;22.02;69.06
62025;BME280;47978;49.118;12.146;2022-08-21T12:36:21;97444.03;;;22.06;68.97
62025;BME280;47978;49.118;12.146;2022-08-21T12:38:51;97441.41;;;22.20;67.77
62025;BME280;47978;49.118;12.146;2022-08-21T12:41:21;97443.31;;;22.16;68.32
62025;BME280;47978;49.118;12.146;2022-08-21T12:43:53;97443.16;;;22.32;71.68
62025;BME280;47978;49.118;12.146;2022-08-21T12:46:29;97436.00;;;22.42;67.95
62025;BME280;47978;49.118;12.146;2022-08-21T12:49:02;97429.56;;;22.41;67.34
62025;BME280;47978;49.118;12.146;2022-08-21T12:51:34;97432.56;;;22.22;66.14
62025;BME280;47978;49.118;12.146;2022-08-21T12:54:05;97423.13;;;22.41;67.86
62025;BME280;47978;49.118;12.146;2022-08-21T12:56:33;97420.06;;;22.57;67.32
62025;BME280;47978;49.118;12.146;2022-08-21T12:59:02;97422.06;;;22.56;67.68
62025;BME280;47978;49.118;12.146;2022-08-21T13:01:32;97411.13;;;22.51;66.68
62025;BME280;47978;49.118;12.146;2022-08-21T13:04:09;97408.69;;;22.46;65.06